createdAt,value
2019-04-29T00:02:22.669Z,102314.34
2019-04-29T00:04:48.540Z,102323.34
2019-04-29T00:07:14.401Z,102317.67
2019-04-29T00:09:40.266Z,102324.88
2019-04-29T00:12:06.242Z,102323.70
2019-04-29T00:14:33.402Z,102330.59
2019-04-29T00:17:16.089Z,102330.27
2019-04-29T00:20:00.635Z,102331.78
2019-04-29T00:22:26.496Z,102327.95
2019-04-29T00:24:52.365Z,102330.50
2019-04-29T00:27:18.225Z,102331.22
2019-04-29T00:29:44.074Z,102336.75
2019-04-29T00:32:10.325Z,102336.58
2019-04-29T00:34:36.202Z,102340.17
2019-04-29T00:37:09.895Z,102338.58
2019-04-29T00:39:43.917Z,102344.25
2019-04-29T00:42:14.666Z,102337.36
2019-04-29T00:44:40.517Z,102336.09
2019-04-29T00:47:06.385Z,102334.32
2019-04-29T00:49:32.271Z,102339.88
2019-04-29T00:51:58.121Z,102338.61
2019-04-29T00:54:37.817Z,102345.58
2019-04-29T00:57:03.756Z,102344.53
2019-04-29T00:59:29.608Z,102338.59
2019-04-29T01:01:56.397Z,102331.55
2019-04-29T01:04:22.248Z,102336.95
2019-04-29T01:06:48.096Z,102351.27
2019-04-29T01:09:14.052Z,102345.67
2019-04-29T01:11:40.112Z,102352.06
2019-04-29T01:14:06.007Z,102347.83
2019-04-29T01:16:31.860Z,102350.31
2019-04-29T01:18:57.717Z,102353.35
2019-04-29T01:21:23.575Z,102357.33
2019-04-29T01:23:49.433Z,102356.45
2019-04-29T01:26:29.085Z,102361.81
2019-04-29T01:28:59.623Z,102369.32
2019-04-29T01:31:27.394Z,102366.69
2019-04-29T01:33:55.159Z,102368.62
2019-04-29T01:36:22.916Z,102360.84
2019-04-29T01:38:50.174Z,102368.62
2019-04-29T01:41:17.934Z,102368.13
2019-04-29T01:44:00.209Z,102374.44
2019-04-29T01:46:27.412Z,102372.70
2019-04-29T01:48:54.655Z,102373.57
2019-04-29T01:51:20.520Z,102372.05
2019-04-29T01:53:46.401Z,102370.44
2019-04-29T01:56:12.254Z,102378.59
2019-04-29T01:58:38.110Z,102367.23
2019-04-29T02:01:04.066Z,102368.75
2019-04-29T02:03:29.975Z,102374.11
2019-04-29T02:05:55.825Z,102369.54
2019-04-29T02:08:21.681Z,102371.06
2019-04-29T02:10:47.540Z,102384.73
2019-04-29T02:13:14.259Z,102388.48
2019-04-29T02:15:40.112Z,102381.11
2019-04-29T02:18:05.965Z,102380.61
2019-04-29T02:20:31.839Z,102391.48
2019-04-29T02:23:02.573Z,102392.72
2019-04-29T02:25:30.335Z,102388.39
2019-04-29T02:27:56.371Z,102389.87
2019-04-29T02:30:29.071Z,102404.16
2019-04-29T02:32:54.919Z,102391.14
2019-04-29T02:35:20.788Z,102397.02
2019-04-29T02:37:46.741Z,102402.25
2019-04-29T02:40:17.561Z,102400.89
2019-04-29T02:42:45.333Z,102396.50
2019-04-29T02:45:13.793Z,102401.34
2019-04-29T02:47:39.635Z,102402.00
2019-04-29T02:50:06.405Z,102394.71
2019-04-29T02:52:32.255Z,102399.97
2019-04-29T02:55:00.014Z,102402.33
2019-04-29T02:57:30.283Z,102400.06
2019-04-29T03:00:01.107Z,102394.44
2019-04-29T03:02:29.071Z,102406.17
2019-04-29T03:05:05.515Z,102404.58
2019-04-29T03:07:31.551Z,102401.92
2019-04-29T03:09:57.437Z,102411.50
2019-04-29T03:12:23.307Z,102396.99
2019-04-29T03:14:49.228Z,102396.58
2019-04-29T03:17:18.618Z,102411.17
2019-04-29T03:20:01.989Z,102406.01
2019-04-29T03:22:28.080Z,102400.66
2019-04-29T03:24:53.926Z,102412.87
2019-04-29T03:27:19.793Z,102420.88
2019-04-29T03:29:45.648Z,102409.74
2019-04-29T03:32:11.498Z,102418.99
2019-04-29T03:34:37.370Z,102425.78
2019-04-29T03:37:03.216Z,102423.89
2019-04-29T03:39:29.066Z,102430.19
2019-04-29T03:41:54.963Z,102418.12
2019-04-29T03:44:20.808Z,102424.16
2019-04-29T03:46:46.670Z,102416.02
2019-04-29T03:49:12.539Z,102420.53
2019-04-29T03:51:38.393Z,102419.70
2019-04-29T03:54:04.243Z,102430.42
2019-04-29T03:56:30.104Z,102428.61
2019-04-29T03:58:55.963Z,102431.81
2019-04-29T04:01:29.525Z,102436.83
2019-04-29T04:03:57.329Z,102432.68
2019-04-29T04:06:30.671Z,102434.52
2019-04-29T04:09:06.247Z,102442.05
2019-04-29T04:11:26.224Z,102436.02
2019-04-29T04:13:52.115Z,102436.97
2019-04-29T04:16:28.521Z,102438.81
2019-04-29T04:18:56.256Z,102439.90
2019-04-29T04:21:22.106Z,102444.05
2019-04-29T04:23:47.962Z,102444.38
2019-04-29T04:26:13.813Z,102439.22
2019-04-29T04:28:39.672Z,102443.83
2019-04-29T04:31:07.063Z,102452.11
2019-04-29T04:33:33.158Z,102444.98
2019-04-29T04:35:59.008Z,102448.91
2019-04-29T04:38:24.882Z,102447.21
2019-04-29T04:40:58.194Z,102455.84
2019-04-29T04:43:24.050Z,102468.05
2019-04-29T04:45:49.921Z,102452.45
2019-04-29T04:48:15.808Z,102468.65
2019-04-29T04:50:41.689Z,102456.37
2019-04-29T04:53:07.928Z,102464.85
2019-04-29T04:55:35.682Z,102463.91
2019-04-29T04:58:01.541Z,102466.83
2019-04-29T05:00:29.304Z,102472.25
2019-04-29T05:02:55.227Z,102460.94
2019-04-29T05:05:21.030Z,102468.03
2019-04-29T05:07:46.914Z,102461.94
2019-04-29T05:10:12.769Z,102473.13
2019-04-29T05:12:38.624Z,102471.78
2019-04-29T05:15:05.006Z,102481.90
2019-04-29T05:17:30.864Z,102478.28
2019-04-29T05:19:56.729Z,102477.56
2019-04-29T05:22:22.610Z,102478.20
2019-04-29T05:24:48.485Z,102481.22
2019-04-29T05:27:14.448Z,102478.96
2019-04-29T05:29:40.309Z,102479.83
2019-04-29T05:32:06.218Z,102489.27
2019-04-29T05:34:33.965Z,102490.28
2019-04-29T05:37:01.717Z,102493.34
2019-04-29T05:39:44.006Z,102500.38
2019-04-29T05:42:16.078Z,102495.80
2019-04-29T05:44:42.081Z,102500.70
2019-04-29T05:47:12.716Z,102490.27
2019-04-29T05:49:56.939Z,102489.89
2019-04-29T05:52:24.699Z,102495.22
2019-04-29T05:54:50.558Z,102504.18
2019-04-29T05:57:20.324Z,102509.86
2019-04-29T05:59:47.868Z,102508.58
2019-04-29T06:02:12.165Z,102509.02
2019-04-29T06:04:38.105Z,102514.58
2019-04-29T06:07:04.137Z,102520.23
2019-04-29T06:09:30.083Z,102519.05
2019-04-29T06:11:55.939Z,102510.98
2019-04-29T06:14:22.268Z,102508.14
2019-04-29T06:16:48.353Z,102519.53
2019-04-29T06:19:14.288Z,102514.09
2019-04-29T06:21:40.152Z,102517.31
2019-04-29T06:24:06.415Z,102515.39
2019-04-29T06:26:33.794Z,102526.40
2019-04-29T06:28:59.595Z,102524.33
2019-04-29T06:31:25.453Z,102535.30
2019-04-29T06:33:51.315Z,102536.78
2019-04-29T06:36:17.521Z,102525.36
2019-04-29T06:38:43.368Z,102523.58
2019-04-29T06:41:09.812Z,102530.55
2019-04-29T06:43:36.832Z,102530.30
2019-04-29T06:46:02.685Z,102534.72
2019-04-29T06:48:28.556Z,102538.69
2019-04-29T06:50:54.407Z,102543.03
2019-04-29T06:53:21.281Z,102540.52
2019-04-29T06:55:48.026Z,102539.03
2019-04-29T06:58:13.876Z,102536.88
2019-04-29T07:00:39.736Z,102546.14
2019-04-29T07:03:05.595Z,102539.23
2019-04-29T07:05:31.451Z,102545.66
2019-04-29T07:07:57.304Z,102553.73
2019-04-29T07:10:27.091Z,102559.63
2019-04-29T07:12:50.946Z,102557.36
2019-04-29T07:15:16.799Z,102562.52
2019-04-29T07:17:43.058Z,102574.31
2019-04-29T07:20:09.915Z,102575.16
2019-04-29T07:25:09.271Z,102568.94
2019-04-29T07:27:43.121Z,102578.37
2019-04-29T07:30:06.605Z,102576.48
2019-04-29T07:32:33.265Z,102576.00
2019-04-29T07:34:59.130Z,102579.27
2019-04-29T07:37:24.984Z,102574.99
2019-04-29T07:39:50.900Z,102578.26
2019-04-29T07:42:16.767Z,102583.00
2019-04-29T07:44:44.620Z,102576.80
2019-04-29T07:47:10.414Z,102580.95
2019-04-29T07:49:36.285Z,102576.95
2019-04-29T07:52:02.364Z,102580.47
2019-04-29T07:54:28.267Z,102574.85
2019-04-29T07:56:54.141Z,102575.59
2019-04-29T07:59:19.997Z,102585.13
2019-04-29T08:01:45.866Z,102578.17
2019-04-29T08:04:11.737Z,102583.88
2019-04-29T08:06:42.866Z,102574.11
2019-04-29T08:09:08.002Z,102578.66
2019-04-29T08:11:35.770Z,102575.05
2019-04-29T08:14:02.131Z,102587.41
2019-04-29T08:16:28.005Z,102583.80
2019-04-29T08:18:54.948Z,102578.48
2019-04-29T08:21:20.859Z,102582.27
2019-04-29T08:23:46.712Z,102576.05
2019-04-29T08:26:12.600Z,102589.59
2019-04-29T08:28:38.486Z,102584.17
2019-04-29T08:31:04.339Z,102585.58
2019-04-29T08:33:30.276Z,102589.80
2019-04-29T08:35:56.129Z,102585.23
2019-04-29T08:38:22.008Z,102584.30
2019-04-29T08:40:50.088Z,102583.84
2019-04-29T08:43:32.664Z,102585.45
2019-04-29T08:46:09.290Z,102585.16
2019-04-29T08:48:35.150Z,102590.73
2019-04-29T08:51:01.019Z,102583.92
2019-04-29T08:53:26.881Z,102584.66
2019-04-29T08:55:52.735Z,102583.45
2019-04-29T08:58:18.600Z,102589.05
2019-04-29T09:00:44.524Z,102593.66
2019-04-29T09:03:10.391Z,102581.89
2019-04-29T09:05:36.266Z,102583.58
2019-04-29T09:08:02.121Z,102592.51
2019-04-29T09:10:28.005Z,102581.31
2019-04-29T09:12:53.885Z,102574.61
2019-04-29T09:15:20.084Z,102584.44
2019-04-29T09:17:45.918Z,102580.19
2019-04-29T09:20:12.557Z,102583.55
2019-04-29T09:22:43.102Z,102577.44
2019-04-29T09:25:28.069Z,102585.92
2019-04-29T09:28:04.853Z,102580.64
2019-04-29T09:30:30.702Z,102572.33
2019-04-29T09:32:56.648Z,102584.57
2019-04-29T09:35:22.509Z,102568.48
2019-04-29T09:37:48.375Z,102567.53
2019-04-29T09:40:16.440Z,102565.05
2019-04-29T09:43:14.789Z,102559.55
2019-04-29T09:45:32.401Z,102567.66
2019-04-29T09:47:58.270Z,102573.06
2019-04-29T09:50:24.174Z,102559.74
2019-04-29T09:52:50.021Z,102566.49
2019-04-29T09:55:17.086Z,102556.26
2019-04-29T09:57:42.954Z,102559.02
2019-04-29T10:00:11.722Z,102560.80
2019-04-29T10:02:39.515Z,102567.09
2019-04-29T10:05:07.765Z,102560.88
2019-04-29T10:07:33.614Z,102565.64
2019-04-29T10:10:02.393Z,102553.45
2019-04-29T10:12:27.593Z,102544.55
2019-04-29T10:14:54.349Z,102550.73
2019-04-29T10:17:22.358Z,102555.89
2019-04-29T10:19:53.199Z,102536.67
2019-04-29T10:22:19.085Z,102550.41
2019-04-29T10:24:45.177Z,102537.25
2019-04-29T10:27:11.792Z,102537.60
2019-04-29T10:29:38.352Z,102541.16
2019-04-29T10:32:06.909Z,102539.20
2019-04-29T10:34:33.954Z,102541.08
2019-04-29T10:36:59.821Z,102534.28
2019-04-29T10:39:33.394Z,102532.16
2019-04-29T10:42:01.492Z,102535.37
2019-04-29T10:44:45.879Z,102528.97
2019-04-29T10:47:30.234Z,102530.97
2019-04-29T10:50:10.733Z,102526.31
2019-04-29T10:52:38.667Z,102523.20
2019-04-29T10:55:04.197Z,102534.09
2019-04-29T10:57:30.368Z,102524.30
2019-04-29T11:00:00.914Z,102520.53
2019-04-29T11:02:30.431Z,102520.13
2019-04-29T11:05:02.491Z,102520.12
2019-04-29T11:07:31.837Z,102519.78
2019-04-29T11:10:02.263Z,102518.43
2019-04-29T11:12:28.222Z,102509.94
2019-04-29T11:14:54.309Z,102521.64
2019-04-29T11:17:22.171Z,102508.32
2019-04-29T11:19:48.027Z,102513.27
2019-04-29T11:22:15.798Z,102512.69
2019-04-29T11:25:00.164Z,102506.55
2019-04-29T11:27:30.746Z,102502.39
2019-04-29T11:29:58.571Z,102511.06
2019-04-29T11:32:29.211Z,102503.70
2019-04-29T11:35:02.581Z,102504.42
2019-04-29T11:37:28.634Z,102499.78
2019-04-29T11:39:57.083Z,102499.06
2019-04-29T11:42:22.553Z,102497.48
2019-04-29T11:44:48.415Z,102491.78
2019-04-29T11:47:14.309Z,102502.75
2019-04-29T11:49:42.077Z,102493.18
2019-04-29T11:52:10.013Z,102501.39
2019-04-29T11:54:35.693Z,102493.72
2019-04-29T11:57:02.050Z,102496.12
2019-04-29T11:59:32.337Z,102494.80
2019-04-29T12:02:00.361Z,102491.50
2019-04-29T12:04:28.688Z,102488.05
2019-04-29T12:06:57.933Z,102486.69
2019-04-29T12:09:25.464Z,102485.25
2019-04-29T12:11:51.829Z,102481.21
2019-04-29T12:14:19.593Z,102484.84
2019-04-29T12:16:47.411Z,102482.06
2019-04-29T12:19:22.472Z,102479.38
2019-04-29T12:21:48.620Z,102484.68
2019-04-29T12:24:14.900Z,102476.46
2019-04-29T12:26:44.227Z,102472.45
2019-04-29T12:29:08.501Z,102477.22
2019-04-29T12:31:36.262Z,102477.85
2019-04-29T12:34:19.196Z,102465.95
2019-04-29T12:36:56.271Z,102476.38
2019-04-29T12:39:43.065Z,102474.88
2019-04-29T12:42:13.141Z,102476.56
2019-04-29T12:44:44.472Z,102478.30
2019-04-29T12:47:10.562Z,102468.41
2019-04-29T12:49:36.420Z,102468.45
2019-04-29T12:52:02.402Z,102468.75
2019-04-29T12:54:28.249Z,102466.77
2019-04-29T12:56:54.119Z,102465.61
2019-04-29T12:59:20.093Z,102464.20
2019-04-29T13:01:54.117Z,102459.42
2019-04-29T13:04:22.813Z,102455.13
2019-04-29T13:06:59.666Z,102452.48
2019-04-29T13:09:46.183Z,102448.23
2019-04-29T13:12:19.383Z,102441.59
2019-04-29T13:14:41.813Z,102433.32
2019-04-29T13:17:14.892Z,102435.36
2019-04-29T13:19:50.252Z,102435.25
2019-04-29T13:22:15.594Z,102439.50
2019-04-29T13:24:42.644Z,102439.94
2019-04-29T13:27:15.914Z,102428.16
2019-04-29T13:29:37.478Z,102427.84
2019-04-29T13:32:03.405Z,102420.86
2019-04-29T13:34:33.332Z,102415.16
2019-04-29T13:37:07.479Z,102419.69
2019-04-29T13:39:39.274Z,102425.55
2019-04-29T13:41:57.656Z,102412.57
2019-04-29T13:44:22.638Z,102415.44
2019-04-29T13:46:55.964Z,102408.00
2019-04-29T13:49:26.595Z,102414.56
2019-04-29T13:51:57.236Z,102409.37
2019-04-29T13:54:23.103Z,102406.41
2019-04-29T13:56:55.858Z,102402.09
2019-04-29T13:59:27.225Z,102402.55
2019-04-29T14:02:01.264Z,102398.02
2019-04-29T14:04:36.449Z,102392.06
2019-04-29T14:07:02.536Z,102388.34
2019-04-29T14:09:28.380Z,102391.16
2019-04-29T14:12:01.699Z,102398.44
2019-04-29T14:14:22.622Z,102398.09
2019-04-29T14:16:48.869Z,102393.95
2019-04-29T14:19:20.495Z,102393.58
2019-04-29T14:21:43.643Z,102395.91
2019-04-29T14:24:09.658Z,102393.64
2019-04-29T14:26:37.063Z,102395.98
2019-04-29T14:29:03.585Z,102394.20
2019-04-29T14:31:30.295Z,102386.14
2019-04-29T14:34:03.991Z,102389.69
2019-04-29T14:36:29.850Z,102393.80
2019-04-29T14:38:55.710Z,102384.44
2019-04-29T14:41:21.587Z,102386.06
2019-04-29T14:43:55.104Z,102380.12
2019-04-29T14:46:27.938Z,102374.06
2019-04-29T14:49:04.300Z,102385.92
2019-04-29T14:51:37.053Z,102371.77
2019-04-29T14:54:01.453Z,102377.72
2019-04-29T14:56:25.069Z,102378.91
2019-04-29T14:58:50.930Z,102379.44
2019-04-29T15:01:23.614Z,102374.56
2019-04-29T15:03:56.900Z,102373.92
2019-04-29T15:06:22.851Z,102372.00
2019-04-29T15:08:48.794Z,102370.76
2019-04-29T15:11:14.759Z,102381.98
2019-04-29T15:13:43.129Z,102375.30
2019-04-29T15:16:18.956Z,102381.36
2019-04-29T15:19:04.273Z,102376.00
2019-04-29T15:21:33.764Z,102377.09
2019-04-29T15:24:00.153Z,102384.49
2019-04-29T15:26:26.909Z,102385.14
2019-04-29T15:28:52.770Z,102368.00
2019-04-29T15:31:19.826Z,102375.84
2019-04-29T15:33:45.683Z,102377.14
2019-04-29T15:36:11.528Z,102388.27
2019-04-29T15:38:37.397Z,102373.14
2019-04-29T15:41:05.490Z,102384.64
2019-04-29T15:43:46.562Z,102377.52
2019-04-29T15:45:58.783Z,102380.65
2019-04-29T15:48:24.647Z,102382.52
2019-04-29T15:50:50.496Z,102378.68
2019-04-29T15:53:16.411Z,102377.45
2019-04-29T15:55:42.315Z,102379.88
2019-04-29T15:58:08.501Z,102378.50
2019-04-29T16:00:37.632Z,102381.39
2019-04-29T16:03:02.493Z,102387.48
2019-04-29T16:05:56.041Z,102397.31
2019-04-29T16:08:20.821Z,102387.45
2019-04-29T16:11:05.349Z,102388.50
2019-04-29T16:13:31.268Z,102384.57
2019-04-29T16:15:57.114Z,102390.03
2019-04-29T16:18:23.019Z,102388.75
2019-04-29T16:20:53.780Z,102390.16
2019-04-29T16:23:16.752Z,102393.41
2019-04-29T16:25:46.149Z,102392.92
2019-04-29T16:28:10.369Z,102391.22
2019-04-29T16:30:36.233Z,102394.29
2019-04-29T16:33:13.332Z,102386.94
2019-04-29T16:35:34.734Z,102392.39
2019-04-29T16:37:58.153Z,102385.33
2019-04-29T16:40:25.894Z,102385.84
2019-04-29T16:43:06.008Z,102388.05
2019-04-29T16:45:33.778Z,102377.71
2019-04-29T16:47:59.642Z,102384.31
2019-04-29T16:50:25.608Z,102386.59
2019-04-29T16:52:51.492Z,102380.55
2019-04-29T16:55:17.385Z,102394.73
2019-04-29T16:57:43.276Z,102385.18
2019-04-29T17:00:13.846Z,102379.80
2019-04-29T17:02:37.702Z,102388.30
2019-04-29T17:05:05.364Z,102395.37
2019-04-29T17:07:31.244Z,102380.51
2019-04-29T17:09:59.015Z,102388.45
2019-04-29T17:12:29.349Z,102378.10
2019-04-29T17:15:03.960Z,102384.33
2019-04-29T17:17:29.141Z,102373.06
2019-04-29T17:19:56.032Z,102385.64
2019-04-29T17:22:26.016Z,102381.16
2019-04-29T17:24:52.486Z,102377.95
2019-04-29T17:27:23.503Z,102371.20
2019-04-29T17:29:55.382Z,102378.10
2019-04-29T17:32:42.940Z,102367.44
2019-04-29T17:35:06.457Z,102376.52
2019-04-29T17:37:37.809Z,102365.39
2019-04-29T17:40:14.720Z,102376.52
2019-04-29T17:42:51.960Z,102375.64
2019-04-29T17:45:30.833Z,102382.08
2019-04-29T17:47:53.455Z,102388.22
2019-04-29T17:50:29.978Z,102390.32
2019-04-29T17:52:48.961Z,102386.52
2019-04-29T17:55:38.721Z,102392.63
2019-04-29T17:58:07.156Z,102380.60
2019-04-29T18:00:43.714Z,102384.45
2019-04-29T18:03:19.429Z,102386.89
2019-04-29T18:05:54.947Z,102375.80
2019-04-29T18:08:34.285Z,102383.61
2019-04-29T18:11:04.740Z,102386.75
2019-04-29T18:13:29.695Z,102390.51
2019-04-29T18:16:03.437Z,102395.30
2019-04-29T18:18:46.214Z,102391.07
2019-04-29T18:21:06.666Z,102389.02
2019-04-29T18:23:37.493Z,102395.86
2019-04-29T18:26:08.060Z,102394.55
2019-04-29T18:28:35.832Z,102397.20
2019-04-29T18:31:03.074Z,102397.03
2019-04-29T18:33:30.442Z,102403.92
2019-04-29T18:36:03.763Z,102404.68
2019-04-29T18:38:26.269Z,102403.50
2019-04-29T18:40:52.121Z,102413.77
2019-04-29T18:43:19.180Z,102407.66
2019-04-29T18:45:55.551Z,102408.94
2019-04-29T18:48:16.971Z,102409.52
2019-04-29T18:50:41.418Z,102417.30
2019-04-29T18:53:07.343Z,102416.63
2019-04-29T18:55:35.352Z,102415.73
2019-04-29T18:58:01.261Z,102410.38
2019-04-29T19:00:27.330Z,102420.03
2019-04-29T19:02:59.698Z,102409.36
2019-04-29T19:05:27.785Z,102425.77
2019-04-29T19:07:55.166Z,102416.40
2019-04-29T19:10:18.970Z,102416.44
2019-04-29T19:12:57.021Z,102434.47
2019-04-29T19:15:13.088Z,102439.84
2019-04-29T19:17:40.086Z,102427.20
2019-04-29T19:20:08.725Z,102446.97
2019-04-29T19:22:35.898Z,102432.61
2019-04-29T19:25:08.665Z,102438.46
2019-04-29T19:27:37.121Z,102440.59
2019-04-29T19:29:59.881Z,102450.99
2019-04-29T19:32:25.737Z,102441.86
2019-04-29T19:34:54.939Z,102445.11
2019-04-29T19:37:19.390Z,102453.85
2019-04-29T19:39:45.263Z,102453.11
2019-04-29T19:42:11.137Z,102460.59
2019-04-29T19:44:37.035Z,102460.59
2019-04-29T19:47:02.976Z,102451.48
2019-04-29T19:49:28.826Z,102458.96
2019-04-29T19:51:55.522Z,102453.84
2019-04-29T19:54:24.649Z,102451.05
2019-04-29T19:56:49.305Z,102457.69
2019-04-29T19:59:17.415Z,102461.64
2019-04-29T20:01:46.648Z,102478.77
2019-04-29T20:04:21.462Z,102465.13
2019-04-29T20:06:45.493Z,102459.19
2019-04-29T20:09:17.048Z,102467.76
2019-04-29T20:11:39.645Z,102467.84
2019-04-29T20:14:13.185Z,102473.41
2019-04-29T20:16:43.206Z,102473.27
2019-04-29T20:19:21.068Z,102473.19
2019-04-29T20:21:46.012Z,102482.34
2019-04-29T20:24:15.498Z,102485.75
2019-04-29T20:26:43.761Z,102484.12
2019-04-29T20:29:08.806Z,102471.24
2019-04-29T20:31:37.110Z,102481.13
2019-04-29T20:34:02.758Z,102481.03
2019-04-29T20:36:38.534Z,102479.99
2019-04-29T20:38:56.722Z,102486.67
2019-04-29T20:41:39.381Z,102490.97
2019-04-29T20:43:50.645Z,102485.34
2019-04-29T20:46:18.003Z,102484.36
2019-04-29T20:48:45.603Z,102486.87
2019-04-29T20:51:14.150Z,102485.47
2019-04-29T20:53:41.558Z,102492.88
2019-04-29T20:56:11.998Z,102490.14
2019-04-29T20:58:35.996Z,102492.03
2019-04-29T21:01:07.113Z,102488.26
2019-04-29T21:03:32.460Z,102480.48
2019-04-29T21:06:02.528Z,102486.19
2019-04-29T21:08:26.299Z,102485.45
2019-04-29T21:10:55.456Z,102476.16
2019-04-29T21:13:23.308Z,102479.83
2019-04-29T21:15:59.422Z,102482.95
2019-04-29T21:18:25.118Z,102482.45
2019-04-29T21:20:52.568Z,102482.21
2019-04-29T21:23:18.412Z,102479.70
2019-04-29T21:25:45.808Z,102485.92
2019-04-29T21:28:11.860Z,102483.83
2019-04-29T21:30:42.517Z,102480.48
2019-04-29T21:33:08.229Z,102475.73
2019-04-29T21:35:38.074Z,102470.67
2019-04-29T21:38:22.204Z,102472.45
2019-04-29T21:40:53.529Z,102477.91
2019-04-29T21:43:21.536Z,102473.68
2019-04-29T21:45:48.485Z,102477.66
2019-04-29T21:48:14.525Z,102485.75
2019-04-29T21:50:40.477Z,102472.65
2019-04-29T21:53:06.333Z,102481.73
2019-04-29T21:55:32.223Z,102478.31
2019-04-29T21:57:58.908Z,102471.42
2019-04-29T22:00:26.074Z,102464.80
2019-04-29T22:02:51.933Z,102465.69
2019-04-29T22:05:18.647Z,102472.55
2019-04-29T22:07:47.391Z,102471.69
2019-04-29T22:10:13.058Z,102467.40
2019-04-29T22:12:38.919Z,102462.41
2019-04-29T22:15:05.911Z,102464.17
2019-04-29T22:17:33.120Z,102466.05
2019-04-29T22:20:04.211Z,102464.59
2019-04-29T22:22:30.674Z,102471.58
2019-04-29T22:24:57.587Z,102467.46
2019-04-29T22:27:23.497Z,102475.80
2019-04-29T22:29:49.349Z,102481.16
2019-04-29T22:32:19.246Z,102470.48
2019-04-29T22:34:45.082Z,102481.44
2019-04-29T22:37:10.913Z,102479.58
2019-04-29T22:39:36.765Z,102474.15
2019-04-29T22:42:04.635Z,102479.67
2019-04-29T22:44:30.508Z,102479.05
2019-04-29T22:46:56.357Z,102479.38
2019-04-29T22:49:25.209Z,102478.63
2019-04-29T22:51:55.823Z,102481.84
2019-04-29T22:54:21.993Z,102479.19
2019-04-29T22:56:51.916Z,102479.38
2019-04-29T22:59:14.765Z,102481.97
2019-04-29T23:01:42.323Z,102469.61
2019-04-29T23:04:09.552Z,102475.52
2019-04-29T23:06:39.800Z,102478.98
2019-04-29T23:09:07.708Z,102465.49
2019-04-29T23:11:34.778Z,102474.71
2019-04-29T23:14:01.710Z,102480.86
2019-04-29T23:16:31.612Z,102470.66
2019-04-29T23:18:56.653Z,102460.52
2019-04-29T23:21:28.059Z,102468.59
2019-04-29T23:24:08.355Z,102466.95
2019-04-29T23:26:34.842Z,102466.48
2019-04-29T23:29:03.632Z,102461.85
2019-04-29T23:31:28.369Z,102466.17
2019-04-29T23:33:56.417Z,102467.19
2019-04-29T23:36:22.392Z,102465.19
2019-04-29T23:38:48.249Z,102463.00
2019-04-29T23:41:15.315Z,102460.63
2019-04-29T23:43:41.303Z,102450.45
2019-04-29T23:46:07.169Z,102456.95
2019-04-29T23:48:39.405Z,102451.47
2019-04-29T23:51:00.869Z,102451.43
2019-04-29T23:53:26.737Z,102461.82
2019-04-29T23:56:09.349Z,102454.30
2019-04-29T23:58:46.814Z,102458.33
